createdAt,value
2022-12-14T00:01:22.570Z,100002.69
2022-12-14T00:03:49.750Z,99998.16
2022-12-14T00:06:28.110Z,99997.69
2022-12-14T00:08:57.112Z,99996.41
2022-12-14T00:11:23.748Z,99999.84
2022-12-14T00:14:01.510Z,99992.69
2022-12-14T00:16:30.172Z,99985.88
2022-12-14T00:18:59.096Z,99994.53
2022-12-14T00:21:26.599Z,99996.81
2022-12-14T00:23:54.286Z,99995.81
2022-12-14T00:26:26.058Z,99989.88
2022-12-14T00:28:54.191Z,99996.84
2022-12-14T00:31:21.842Z,99993.72
2022-12-14T00:33:50.300Z,99987.47
2022-12-14T00:36:17.142Z,99987.13
2022-12-14T00:38:44.126Z,99982.97
2022-12-14T00:41:10.973Z,99986.81
2022-12-14T00:43:37.551Z,99981.75
2022-12-14T00:46:04.118Z,99972.91
2022-12-14T00:48:31.284Z,99971.19
2022-12-14T00:50:58.233Z,99970.97
2022-12-14T00:53:25.379Z,99970.09
2022-12-14T00:55:52.342Z,99963.19
2022-12-14T00:58:21.374Z,99962.34
2022-12-14T01:00:57.815Z,99957.22
2022-12-14T01:03:24.626Z,99963.13
2022-12-14T01:05:51.297Z,99963.19
2022-12-14T01:08:17.684Z,99963.41
2022-12-14T01:10:44.138Z,99962.03
2022-12-14T01:13:11.549Z,99960.41
2022-12-14T01:15:38.372Z,99958.69
2022-12-14T01:18:04.912Z,99958.25
2022-12-14T01:20:31.311Z,99966.34
2022-12-14T01:22:58.288Z,99967.84
2022-12-14T01:25:25.173Z,99963.84
2022-12-14T01:27:51.701Z,99957.66
2022-12-14T01:30:19.340Z,99958.66
2022-12-14T01:32:46.510Z,99964.63
2022-12-14T01:35:12.977Z,99954.34
2022-12-14T01:37:39.456Z,99955.06
2022-12-14T01:40:06.250Z,99957.38
2022-12-14T01:42:35.206Z,99943.47
2022-12-14T01:45:01.755Z,99944.47
2022-12-14T01:47:42.048Z,99938.88
2022-12-14T01:50:11.521Z,99942.97
2022-12-14T01:52:49.449Z,99936.53
2022-12-14T01:55:23.844Z,99932.66
2022-12-14T01:58:00.106Z,99933.94
2022-12-14T02:00:26.579Z,99927.72
2022-12-14T02:03:19.613Z,99917.28
2022-12-14T02:05:50.588Z,99905.94
2022-12-14T02:08:19.293Z,99917.28
2022-12-14T02:10:47.012Z,99906.81
2022-12-14T02:13:22.134Z,99909.28
2022-12-14T02:15:48.724Z,99908.38
2022-12-14T02:18:21.700Z,99906.47
2022-12-14T02:21:06.210Z,99901.13
2022-12-14T02:24:08.029Z,99906.47
2022-12-14T02:27:01.858Z,99895.41
2022-12-14T02:29:52.538Z,99898.00
2022-12-14T02:32:28.075Z,99904.13
2022-12-14T02:35:18.605Z,99899.88
2022-12-14T02:38:01.569Z,99888.41
2022-12-14T02:40:34.402Z,99883.22
2022-12-14T02:43:18.699Z,99879.06
2022-12-14T02:45:48.035Z,99880.69
2022-12-14T02:48:24.145Z,99875.50
2022-12-14T02:50:59.214Z,99879.56
2022-12-14T02:53:47.447Z,99879.56
2022-12-14T02:56:19.184Z,99879.63
2022-12-14T02:58:50.389Z,99860.63
2022-12-14T03:01:21.954Z,99863.09
2022-12-14T03:03:48.683Z,99858.97
2022-12-14T03:06:26.869Z,99865.19
2022-12-14T03:09:00.269Z,99864.09
2022-12-14T03:11:58.992Z,99860.81
2022-12-14T03:14:28.879Z,99849.47
2022-12-14T03:17:01.630Z,99854.50
2022-12-14T03:19:41.382Z,99856.09
2022-12-14T03:22:13.260Z,99848.16
2022-12-14T03:24:44.655Z,99835.38
2022-12-14T03:27:17.003Z,99846.50
2022-12-14T03:29:58.211Z,99837.91
2022-12-14T03:32:28.489Z,99839.59
2022-12-14T03:35:01.337Z,99828.50
2022-12-14T03:38:06.530Z,99818.75
2022-12-14T03:40:39.840Z,99821.47
2022-12-14T03:43:25.230Z,99816.41
2022-12-14T03:46:04.248Z,99815.53
2022-12-14T03:48:46.211Z,99814.69
2022-12-14T03:51:31.119Z,99806.59
2022-12-14T03:54:08.674Z,99805.06
2022-12-14T03:56:49.700Z,99801.41
2022-12-14T03:59:46.265Z,99796.19
2022-12-14T04:02:40.696Z,99787.25
2022-12-14T04:05:18.259Z,99780.63
2022-12-14T04:08:08.933Z,99781.78
2022-12-14T04:11:05.661Z,99777.88
2022-12-14T04:14:02.166Z,99781.06
2022-12-14T04:16:55.016Z,99784.50
2022-12-14T04:19:34.199Z,99783.66
2022-12-14T04:22:12.944Z,99784.59
2022-12-14T04:25:01.985Z,99762.09
2022-12-14T04:27:39.664Z,99760.97
2022-12-14T04:30:08.630Z,99769.16
2022-12-14T04:32:52.033Z,99765.06
2022-12-14T04:35:25.505Z,99751.47
2022-12-14T04:38:09.183Z,99743.84
2022-12-14T04:40:43.594Z,99749.03
2022-12-14T04:43:15.633Z,99750.25
2022-12-14T04:45:49.434Z,99745.88
2022-12-14T04:48:27.582Z,99748.63
2022-12-14T04:51:09.756Z,99739.47
2022-12-14T04:53:41.037Z,99742.19
2022-12-14T04:56:20.143Z,99742.31
2022-12-14T04:58:46.915Z,99732.56
2022-12-14T05:01:35.488Z,99741.75
2022-12-14T05:04:26.670Z,99730.38
2022-12-14T05:07:11.820Z,99734.56
2022-12-14T05:09:43.199Z,99733.41
2022-12-14T05:12:20.027Z,99733.13
2022-12-14T05:14:52.846Z,99729.72
2022-12-14T05:17:19.453Z,99732.53
2022-12-14T05:19:48.891Z,99711.94
2022-12-14T05:22:16.271Z,99719.09
2022-12-14T05:24:43.014Z,99717.25
2022-12-14T05:27:09.632Z,99717.75
2022-12-14T05:29:36.115Z,99714.03
2022-12-14T05:32:03.367Z,99716.72
2022-12-14T05:34:30.801Z,99716.06
2022-12-14T05:36:58.130Z,99717.75
2022-12-14T05:39:24.597Z,99704.88
2022-12-14T05:41:51.059Z,99704.81
2022-12-14T05:44:17.451Z,99700.59
2022-12-14T05:46:43.888Z,99692.47
2022-12-14T05:49:10.653Z,99694.00
2022-12-14T05:51:37.354Z,99702.06
2022-12-14T05:54:03.896Z,99702.97
2022-12-14T05:56:30.299Z,99695.56
2022-12-14T05:58:57.067Z,99696.66
2022-12-14T06:01:23.779Z,99686.06
2022-12-14T06:03:53.406Z,99680.84
2022-12-14T06:06:19.894Z,99685.34
2022-12-14T06:08:46.735Z,99682.88
2022-12-14T06:11:15.913Z,99678.22
2022-12-14T06:13:43.015Z,99670.47
2022-12-14T06:16:14.702Z,99675.41
2022-12-14T06:18:54.230Z,99667.69
2022-12-14T06:21:23.634Z,99662.22
2022-12-14T06:23:50.048Z,99657.97
2022-12-14T06:26:17.025Z,99657.88
2022-12-14T06:28:43.936Z,99653.44
2022-12-14T06:31:20.044Z,99653.28
2022-12-14T06:33:46.785Z,99662.28
2022-12-14T06:36:23.836Z,99647.03
2022-12-14T06:38:54.487Z,99642.72
2022-12-14T06:41:22.011Z,99640.09
2022-12-14T06:43:49.373Z,99622.59
2022-12-14T06:46:19.744Z,99629.38
2022-12-14T06:49:05.918Z,99639.72
2022-12-14T06:51:32.825Z,99630.38
2022-12-14T06:53:59.406Z,99625.78
2022-12-14T06:56:27.684Z,99620.94
2022-12-14T06:58:55.402Z,99623.16
2022-12-14T07:01:24.650Z,99618.72
2022-12-14T07:03:53.549Z,99617.56
2022-12-14T07:06:21.364Z,99614.84
2022-12-14T07:08:48.709Z,99609.47
2022-12-14T07:11:17.406Z,99612.16
2022-12-14T07:13:44.381Z,99612.94
2022-12-14T07:16:23.760Z,99609.63
2022-12-14T07:18:50.928Z,99602.91
2022-12-14T07:21:19.454Z,99602.03
2022-12-14T07:23:47.249Z,99603.00
2022-12-14T07:26:17.033Z,99602.31
2022-12-14T07:28:44.418Z,99594.81
2022-12-14T07:31:14.334Z,99598.44
2022-12-14T07:33:41.075Z,99584.47
2022-12-14T07:36:09.579Z,99584.19
2022-12-14T07:38:37.428Z,99582.22
2022-12-14T07:41:08.220Z,99578.97
2022-12-14T07:43:35.111Z,99590.75
2022-12-14T07:46:07.685Z,99581.22
2022-12-14T07:48:34.707Z,99568.66
2022-12-14T07:51:06.288Z,99586.00
2022-12-14T07:53:33.758Z,99583.34
2022-12-14T07:56:05.520Z,99579.84
2022-12-14T07:58:33.246Z,99578.88
2022-12-14T08:01:13.521Z,99567.25
2022-12-14T08:03:42.070Z,99562.66
2022-12-14T08:06:10.397Z,99562.41
2022-12-14T08:08:36.905Z,99558.16
2022-12-14T08:11:04.791Z,99557.91
2022-12-14T08:13:32.170Z,99554.41
2022-12-14T08:16:07.282Z,99552.34
2022-12-14T08:18:34.253Z,99558.66
2022-12-14T08:21:01.784Z,99562.06
2022-12-14T08:23:28.835Z,99560.78
2022-12-14T08:25:56.889Z,99554.47
2022-12-14T08:28:24.192Z,99553.09
2022-12-14T08:30:51.516Z,99566.72
2022-12-14T08:33:19.597Z,99564.44
2022-12-14T08:35:46.425Z,99555.97
2022-12-14T08:38:14.199Z,99555.31
2022-12-14T08:40:40.809Z,99550.91
2022-12-14T08:43:07.838Z,99550.16
2022-12-14T08:45:34.925Z,99559.34
2022-12-14T08:48:01.779Z,99555.75
2022-12-14T08:50:29.298Z,99554.56
2022-12-14T08:52:56.359Z,99539.25
2022-12-14T08:55:28.259Z,99539.16
2022-12-14T08:57:56.828Z,99541.81
2022-12-14T09:00:23.378Z,99538.56
2022-12-14T09:02:51.288Z,99543.34
2022-12-14T09:05:18.013Z,99548.44
2022-12-14T09:07:44.429Z,99543.56
2022-12-14T09:10:11.370Z,99546.97
2022-12-14T09:12:37.998Z,99552.47
2022-12-14T09:15:04.805Z,99557.69
2022-12-14T09:17:31.492Z,99560.56
2022-12-14T09:19:58.217Z,99547.34
2022-12-14T09:22:24.795Z,99548.16
2022-12-14T09:24:51.926Z,99562.28
2022-12-14T09:27:18.475Z,99551.84
2022-12-14T09:29:44.895Z,99552.13
2022-12-14T09:32:11.276Z,99555.63
2022-12-14T09:34:37.738Z,99545.34
2022-12-14T09:37:07.377Z,99542.56
2022-12-14T09:39:34.446Z,99541.53
2022-12-14T09:42:04.003Z,99544.25
2022-12-14T09:44:53.611Z,99554.78
2022-12-14T09:47:28.634Z,99534.94
2022-12-14T09:50:07.159Z,99534.25
2022-12-14T09:52:59.862Z,99536.94
2022-12-14T09:55:32.391Z,99538.13
2022-12-14T09:58:05.395Z,99526.09
2022-12-14T10:00:35.902Z,99523.53
2022-12-14T10:03:31.537Z,99524.03
2022-12-14T10:06:16.701Z,99528.44
2022-12-14T10:08:56.131Z,99518.72
2022-12-14T10:11:55.360Z,99513.56
2022-12-14T10:14:30.557Z,99511.88
2022-12-14T10:17:13.873Z,99502.97
2022-12-14T10:19:52.729Z,99504.38
2022-12-14T10:22:23.041Z,99501.09
2022-12-14T10:24:54.735Z,99502.63
2022-12-14T10:27:24.320Z,99502.03
2022-12-14T10:30:01.316Z,99507.63
2022-12-14T10:32:41.361Z,99511.25
2022-12-14T10:35:38.857Z,99513.31
2022-12-14T10:38:17.563Z,99516.22
2022-12-14T10:40:53.585Z,99506.28
2022-12-14T10:43:44.412Z,99510.66
2022-12-14T10:46:35.893Z,99512.03
2022-12-14T10:49:11.194Z,99511.53
2022-12-14T10:51:42.421Z,99499.66
2022-12-14T10:54:20.627Z,99496.84
2022-12-14T10:56:49.902Z,99497.84
2022-12-14T10:59:23.865Z,99492.13
2022-12-14T11:02:05.859Z,99489.66
2022-12-14T11:04:51.113Z,99484.88
2022-12-14T11:07:20.507Z,99484.56
2022-12-14T11:09:47.280Z,99479.91
2022-12-14T11:12:13.751Z,99484.75
2022-12-14T11:15:06.810Z,99481.84
2022-12-14T11:17:42.812Z,99483.94
2022-12-14T11:20:09.412Z,99481.97
2022-12-14T11:22:44.662Z,99477.31
2022-12-14T11:25:29.804Z,99475.53
2022-12-14T11:27:59.442Z,99470.06
2022-12-14T11:30:27.328Z,99457.31
2022-12-14T11:32:53.916Z,99466.13
2022-12-14T11:35:21.213Z,99462.44
2022-12-14T11:37:57.640Z,99462.94
2022-12-14T11:40:26.115Z,99473.22
2022-12-14T11:43:01.417Z,99467.72
2022-12-14T11:45:30.675Z,99461.00
2022-12-14T11:48:10.903Z,99463.38
2022-12-14T11:50:37.441Z,99462.38
2022-12-14T11:53:11.278Z,99460.25
2022-12-14T11:55:40.559Z,99445.94
2022-12-14T11:58:20.157Z,99457.69
2022-12-14T12:00:58.542Z,99443.25
2022-12-14T12:03:31.157Z,99446.66
2022-12-14T12:06:05.624Z,99451.81
2022-12-14T12:08:38.177Z,99453.66
2022-12-14T12:11:20.269Z,99443.16
2022-12-14T12:13:51.081Z,99450.84
2022-12-14T12:16:21.475Z,99439.16
2022-12-14T12:18:52.729Z,99439.16
2022-12-14T12:21:25.015Z,99422.47
2022-12-14T12:24:04.627Z,99430.06
2022-12-14T12:26:36.566Z,99425.34
2022-12-14T12:29:11.713Z,99420.84
2022-12-14T12:31:55.025Z,99417.53
2022-12-14T12:34:31.393Z,99426.97
2022-12-14T12:39:56.953Z,99416.66
2022-12-14T12:42:43.120Z,99415.72
2022-12-14T12:45:21.905Z,99425.81
2022-12-14T12:47:54.799Z,99430.41
2022-12-14T12:50:33.663Z,99427.88
2022-12-14T12:53:30.279Z,99419.94
2022-12-14T12:56:19.557Z,99433.28
2022-12-14T12:58:52.662Z,99433.31
2022-12-14T13:01:30.970Z,99423.44
2022-12-14T13:04:02.888Z,99424.47
2022-12-14T13:06:40.920Z,99420.16
2022-12-14T13:09:27.889Z,99411.06
2022-12-14T13:11:55.448Z,99411.34
2022-12-14T13:14:30.733Z,99414.78
2022-12-14T13:16:59.636Z,99412.78
2022-12-14T13:19:54.691Z,99408.91
2022-12-14T13:22:33.529Z,99414.88
2022-12-14T13:25:07.334Z,99412.66
2022-12-14T13:27:36.493Z,99417.19
2022-12-14T13:30:06.048Z,99406.44
2022-12-14T13:32:50.858Z,99411.81
2022-12-14T13:35:35.749Z,99404.28
2022-12-14T13:38:29.172Z,99407.06
2022-12-14T13:41:23.246Z,99399.81
2022-12-14T13:43:49.625Z,99407.09
2022-12-14T13:46:27.316Z,99394.31
2022-12-14T13:48:57.309Z,99399.59
2022-12-14T13:51:31.790Z,99395.44
2022-12-14T13:54:00.506Z,99394.91
2022-12-14T13:56:33.322Z,99391.09
2022-12-14T13:59:04.668Z,99401.22
2022-12-14T14:01:46.208Z,99402.19
2022-12-14T14:04:15.439Z,99398.63
2022-12-14T14:06:44.026Z,99414.84
2022-12-14T14:09:28.797Z,99400.97
2022-12-14T14:12:34.952Z,99411.56
2022-12-14T14:15:25.824Z,99406.81
2022-12-14T14:17:54.802Z,99403.09
2022-12-14T14:20:36.274Z,99395.06
2022-12-14T14:23:15.319Z,99392.88
2022-12-14T14:26:26.943Z,99391.94
2022-12-14T14:29:15.593Z,99398.94
2022-12-14T14:31:58.130Z,99403.66
2022-12-14T14:34:27.580Z,99405.09
2022-12-14T14:36:54.342Z,99405.56
2022-12-14T14:42:23.113Z,99407.19
2022-12-14T14:44:59.247Z,99411.50
2022-12-14T14:47:35.714Z,99409.22
2022-12-14T14:50:08.277Z,99415.00
2022-12-14T14:52:37.796Z,99411.56
2022-12-14T14:58:34.917Z,99422.22
2022-12-14T15:01:21.550Z,99425.25
2022-12-14T15:04:03.647Z,99419.69
2022-12-14T15:06:33.409Z,99425.63
2022-12-14T15:09:24.119Z,99432.22
2022-12-14T15:12:00.976Z,99433.06
2022-12-14T15:14:46.644Z,99430.31
2022-12-14T15:17:21.925Z,99432.13
2022-12-14T15:19:55.386Z,99428.47
2022-12-14T15:22:25.678Z,99428.09
2022-12-14T15:24:55.730Z,99432.69
2022-12-14T15:27:37.068Z,99433.53
2022-12-14T15:30:06.623Z,99437.81
2022-12-14T15:32:33.514Z,99442.44
2022-12-14T15:35:04.895Z,99443.25
2022-12-14T15:37:43.100Z,99455.56
2022-12-14T15:40:23.073Z,99456.44
2022-12-14T15:42:56.423Z,99451.34
2022-12-14T15:45:25.161Z,99439.44
2022-12-14T15:47:52.077Z,99433.28
2022-12-14T15:50:27.154Z,99434.63
2022-12-14T15:53:13.420Z,99433.28
2022-12-14T15:55:44.134Z,99429.34
2022-12-14T15:58:20.683Z,99423.50
2022-12-14T16:00:50.309Z,99427.00
2022-12-14T16:03:35.491Z,99425.63
2022-12-14T16:06:03.255Z,99425.25
2022-12-14T16:08:34.042Z,99429.81
2022-12-14T16:11:05.421Z,99444.69
2022-12-14T16:13:40.712Z,99443.63
2022-12-14T16:16:11.030Z,99444.41
2022-12-14T16:18:50.745Z,99455.75
2022-12-14T16:21:28.017Z,99456.72
2022-12-14T16:23:56.340Z,99453.09
2022-12-14T16:26:37.395Z,99457.91
2022-12-14T16:29:25.751Z,99456.13
2022-12-14T16:32:14.606Z,99454.47
2022-12-14T16:34:59.234Z,99457.69
2022-12-14T16:37:34.069Z,99464.50
2022-12-14T16:40:00.890Z,99463.22
2022-12-14T16:42:27.942Z,99468.09
2022-12-14T16:44:54.712Z,99462.53
2022-12-14T16:47:21.439Z,99459.28
2022-12-14T16:49:47.975Z,99469.78
2022-12-14T16:52:34.126Z,99463.78
2022-12-14T16:55:20.183Z,99467.47
2022-12-14T16:57:49.557Z,99470.16
2022-12-14T17:00:23.665Z,99466.56
2022-12-14T17:02:57.581Z,99464.22
2022-12-14T17:05:25.930Z,99460.19
2022-12-14T17:07:52.543Z,99446.97
2022-12-14T17:10:24.270Z,99442.41
2022-12-14T17:12:53.513Z,99449.00
2022-12-14T17:15:22.683Z,99449.59
2022-12-14T17:17:52.198Z,99451.06
2022-12-14T17:20:22.299Z,99450.75
2022-12-14T17:22:49.664Z,99450.03
2022-12-14T17:25:16.396Z,99443.81
2022-12-14T17:27:42.994Z,99455.56
2022-12-14T17:30:15.940Z,99456.25
2022-12-14T17:32:43.056Z,99466.72
2022-12-14T17:35:18.006Z,99470.88
2022-12-14T17:37:44.489Z,99464.78
2022-12-14T17:40:11.500Z,99470.97
2022-12-14T17:42:39.828Z,99480.56
2022-12-14T17:45:17.187Z,99484.16
2022-12-14T17:47:43.592Z,99480.59
2022-12-14T17:50:14.002Z,99478.00
2022-12-14T17:52:40.603Z,99476.69
2022-12-14T17:55:07.368Z,99481.88
2022-12-14T17:57:33.868Z,99479.53
2022-12-14T18:00:18.875Z,99479.28
2022-12-14T18:02:45.883Z,99481.63
2022-12-14T18:05:19.682Z,99480.91
2022-12-14T18:07:46.191Z,99491.16
2022-12-14T18:10:18.027Z,99486.53
2022-12-14T18:12:44.664Z,99491.63
2022-12-14T18:15:21.085Z,99483.31
2022-12-14T18:17:49.412Z,99486.03
2022-12-14T18:20:16.168Z,99486.00
2022-12-14T18:22:42.812Z,99482.34
2022-12-14T18:25:30.611Z,99482.19
2022-12-14T18:28:01.977Z,99481.84
2022-12-14T18:30:33.274Z,99480.91
2022-12-14T18:33:03.614Z,99481.88
2022-12-14T18:35:31.868Z,99479.91
2022-12-14T18:37:58.721Z,99479.94
2022-12-14T18:40:27.568Z,99491.63
2022-12-14T18:42:54.509Z,99486.44
2022-12-14T18:45:27.172Z,99500.81
2022-12-14T18:47:54.865Z,99498.72
2022-12-14T18:50:22.439Z,99499.84
2022-12-14T18:52:48.956Z,99507.25
2022-12-14T18:55:26.984Z,99505.94
2022-12-14T18:57:56.686Z,99496.78
2022-12-14T19:00:26.935Z,99503.09
2022-12-14T19:02:57.535Z,99507.31
2022-12-14T19:05:26.448Z,99516.53
2022-12-14T19:07:53.661Z,99520.97
2022-12-14T19:10:23.043Z,99524.75
2022-12-14T19:12:50.318Z,99531.22
2022-12-14T19:15:22.742Z,99533.88
2022-12-14T19:17:49.642Z,99530.69
2022-12-14T19:20:17.294Z,99521.16
2022-12-14T19:22:44.587Z,99529.75
2022-12-14T19:25:12.367Z,99517.75
2022-12-14T19:28:15.557Z,99520.09
2022-12-14T19:30:27.146Z,99509.28
2022-12-14T19:32:55.099Z,99520.19
2022-12-14T19:35:23.176Z,99513.81
2022-12-14T19:37:50.094Z,99515.78
2022-12-14T19:40:17.092Z,99507.97
2022-12-14T19:42:45.254Z,99516.56
2022-12-14T19:45:12.691Z,99521.19
2022-12-14T19:47:39.209Z,99531.22
2022-12-14T19:50:07.096Z,99522.69
2022-12-14T19:52:36.923Z,99521.94
2022-12-14T19:55:03.778Z,99522.97
2022-12-14T19:57:30.271Z,99533.47
2022-12-14T19:59:57.510Z,99528.91
2022-12-14T20:02:24.058Z,99529.78
2022-12-14T20:04:50.736Z,99520.25
2022-12-14T20:07:17.282Z,99520.44
2022-12-14T20:09:43.666Z,99520.38
2022-12-14T20:12:11.318Z,99525.53
2022-12-14T20:14:42.614Z,99526.41
2022-12-14T20:17:10.886Z,99529.09
2022-12-14T20:19:38.706Z,99525.28
2022-12-14T20:22:06.195Z,99527.97
2022-12-14T20:24:32.697Z,99526.97
2022-12-14T20:26:59.308Z,99526.28
2022-12-14T20:29:25.950Z,99525.50
2022-12-14T20:31:52.694Z,99525.47
2022-12-14T20:34:19.161Z,99530.56
2022-12-14T20:36:45.588Z,99531.25
2022-12-14T20:39:12.324Z,99524.38
2022-12-14T20:41:39.028Z,99531.94
2022-12-14T20:44:11.828Z,99540.81
2022-12-14T20:46:40.684Z,99548.59
2022-12-14T20:49:10.706Z,99542.50
2022-12-14T20:51:38.326Z,99545.25
2022-12-14T20:54:06.908Z,99545.97
2022-12-14T20:56:35.148Z,99545.41
2022-12-14T20:59:02.292Z,99540.38
2022-12-14T21:01:29.242Z,99542.22
2022-12-14T21:03:57.570Z,99548.84
2022-12-14T21:06:24.064Z,99551.78
2022-12-14T21:09:05.065Z,99558.88
2022-12-14T21:11:56.366Z,99559.44
2022-12-14T21:14:25.678Z,99557.53
2022-12-14T21:16:52.565Z,99566.06
2022-12-14T21:19:19.492Z,99562.66
2022-12-14T21:21:51.664Z,99563.78
2022-12-14T21:24:37.532Z,99570.78
2022-12-14T21:27:08.340Z,99575.88
2022-12-14T21:29:34.928Z,99577.63
2022-12-14T21:32:01.543Z,99590.56
2022-12-14T21:34:28.161Z,99591.34
2022-12-14T21:36:54.639Z,99592.28
2022-12-14T21:39:21.071Z,99594.88
2022-12-14T21:42:05.832Z,99602.69
2022-12-14T21:44:36.406Z,99604.25
2022-12-14T21:47:05.258Z,99615.06
2022-12-14T21:49:32.237Z,99614.91
2022-12-14T21:51:58.853Z,99619.84
2022-12-14T21:54:25.693Z,99615.50
2022-12-14T21:57:10.733Z,99610.41
2022-12-14T21:59:41.874Z,99606.06
2022-12-14T22:02:15.993Z,99613.16
2022-12-14T22:04:46.764Z,99614.72
2022-12-14T22:07:15.301Z,99611.44
2022-12-14T22:09:42.221Z,99621.75
2022-12-14T22:12:09.092Z,99621.00
2022-12-14T22:14:35.951Z,99620.97
2022-12-14T22:17:02.703Z,99615.63
2022-12-14T22:19:29.184Z,99617.28
2022-12-14T22:21:55.724Z,99616.69
2022-12-14T22:24:24.043Z,99605.34
2022-12-14T22:26:50.728Z,99615.69
2022-12-14T22:29:18.853Z,99617.34
2022-12-14T22:31:45.402Z,99615.69
2022-12-14T22:34:18.922Z,99613.22
2022-12-14T22:36:46.461Z,99613.31
2022-12-14T22:39:13.056Z,99617.84
2022-12-14T22:41:39.541Z,99611.81
2022-12-14T22:44:06.288Z,99614.66
2022-12-14T22:46:33.582Z,99618.69
2022-12-14T22:49:00.374Z,99610.22
2022-12-14T22:51:29.084Z,99612.72
2022-12-14T22:53:56.379Z,99608.28
2022-12-14T22:56:41.959Z,99610.84
2022-12-14T22:59:34.448Z,99615.09
2022-12-14T23:02:01.090Z,99618.53
2022-12-14T23:04:27.845Z,99619.41
2022-12-14T23:06:55.409Z,99612.47
2022-12-14T23:09:40.658Z,99612.38
2022-12-14T23:12:26.181Z,99608.31
2022-12-14T23:15:11.089Z,99610.16
2022-12-14T23:17:55.849Z,99614.41
2022-12-14T23:20:40.667Z,99616.97
2022-12-14T23:23:26.985Z,99613.59
2022-12-14T23:26:12.674Z,99620.41
2022-12-14T23:28:58.431Z,99620.34
2022-12-14T23:31:43.301Z,99614.28
2022-12-14T23:34:28.056Z,99620.38
2022-12-14T23:37:19.496Z,99617.72
2022-12-14T23:40:04.977Z,99625.50
2022-12-14T23:42:49.879Z,99629.03
2022-12-14T23:45:34.730Z,99617.84
2022-12-14T23:48:19.677Z,99621.22
2022-12-14T23:51:04.565Z,99617.63
2022-12-14T23:53:50.002Z,99626.22
2022-12-14T23:56:35.798Z,99629.69
2022-12-14T23:59:22.666Z,99630.81
